sensor_id;sensor_type;location;lat;lon;timestamp;pressure;altitude;pressure_sealevel;temperature;humidity
7058;BME280;3570;43.080;25.628;2022-10-04T00:05:05;-19828.66;;;12.89;100.00
7058;BME280;3570;43.080;25.628;2022-10-04T00:07:53;-19825.75;;;12.79;100.00
7058;BME280;3570;43.080;25.628;2022-10-04T00:10:38;-19825.91;;;12.79;100.00
7058;BME280;3570;43.080;25.628;2022-10-04T00:13:25;-19822.25;;;12.67;100.00
7058;BME280;3570;43.080;25.628;2022-10-04T00:16:18;-19823.41;;;12.71;100.00
7058;BME280;3570;43.080;25.628;2022-10-04T00:36:55;-19818.91;;;12.55;100.00
7058;BME280;3570;43.080;25.628;2022-10-04T00:39:45;-19817.88;;;12.52;100.00
7058;BME280;3570;43.080;25.628;2022-10-04T00:42:35;-19817.28;;;12.50;100.00
7058;BME280;3570;43.080;25.628;2022-10-04T00:45:27;-19817.28;;;12.50;100.00
7058;BME280;3570;43.080;25.628;2022-10-04T00:48:30;-19816.72;;;12.48;100.00
7058;BME280;3570;43.080;25.628;2022-10-04T00:51:23;-19809.13;;;12.21;100.00
7058;BME280;3570;43.080;25.628;2022-10-04T00:54:22;-19813.50;;;12.37;100.00
7058;BME280;3570;43.080;25.628;2022-10-04T00:57:25;-19812.47;;;12.33;100.00
7058;BME280;3570;43.080;25.628;2022-10-04T01:00:13;-19806.22;;;12.11;100.00
7058;BME280;3570;43.080;25.628;2022-10-04T01:03:08;-19812.34;;;12.32;100.00
7058;BME280;3570;43.080;25.628;2022-10-04T01:05:57;-19810.72;;;12.27;100.00
7058;BME280;3570;43.080;25.628;2022-10-04T01:08:53;-19810.00;;;12.24;100.00
7058;BME280;3570;43.080;25.628;2022-10-04T01:11:46;-19809.84;;;12.24;100.00
7058;BME280;3570;43.080;25.628;2022-10-04T01:17:37;-19807.66;;;12.16;100.00
7058;BME280;3570;43.080;25.628;2022-10-04T01:20:33;-19806.66;;;12.13;100.00
7058;BME280;3570;43.080;25.628;2022-10-04T01:23:39;-19804.59;;;12.06;100.00
7058;BME280;3570;43.080;25.628;2022-10-04T01:29:24;-19802.84;;;12.00;100.00
7058;BME280;3570;43.080;25.628;2022-10-04T01:32:09;-19803.72;;;12.03;100.00
7058;BME280;3570;43.080;25.628;2022-10-04T01:34:54;-19803.28;;;12.01;100.00
7058;BME280;3570;43.080;25.628;2022-10-04T01:37:39;-19804.91;;;12.07;100.00
7058;BME280;3570;43.080;25.628;2022-10-04T01:40:23;-19800.66;;;11.92;100.00
7058;BME280;3570;43.080;25.628;2022-10-04T01:43:09;-19800.66;;;11.92;100.00
7058;BME280;3570;43.080;25.628;2022-10-04T01:46:01;-19799.94;;;11.90;100.00
7058;BME280;3570;43.080;25.628;2022-10-04T01:48:47;-19795.69;;;11.75;100.00
7058;BME280;3570;43.080;25.628;2022-10-04T01:51:48;-19797.31;;;11.81;100.00
7058;BME280;3570;43.080;25.628;2022-10-04T01:54:41;-19796.00;;;11.76;100.00
7058;BME280;3570;43.080;25.628;2022-10-04T01:57:33;-19792.50;;;11.64;100.00
7058;BME280;3570;43.080;25.628;2022-10-04T02:00:19;-19795.56;;;11.75;100.00
7058;BME280;3570;43.080;25.628;2022-10-04T02:03:16;-19794.53;;;11.71;100.00
7058;BME280;3570;43.080;25.628;2022-10-04T02:06:03;-19789.00;;;11.52;100.00
7058;BME280;3570;43.080;25.628;2022-10-04T02:08:51;-19792.34;;;11.64;100.00
7058;BME280;3570;43.080;25.628;2022-10-04T02:11:42;-19789.00;;;11.52;100.00
7058;BME280;3570;43.080;25.628;2022-10-04T02:14:31;-19791.75;;;11.62;100.00
7058;BME280;3570;43.080;25.628;2022-10-04T02:17:28;-19791.47;;;11.61;100.00
7058;BME280;3570;43.080;25.628;2022-10-04T02:20:22;-19794.25;;;11.70;100.00
7058;BME280;3570;43.080;25.628;2022-10-04T02:23:09;-19800.66;;;11.92;100.00
7058;BME280;3570;43.080;25.628;2022-10-04T02:25:54;-19796.28;;;11.77;100.00
7058;BME280;3570;43.080;25.628;2022-10-04T02:28:38;-19795.69;;;11.75;100.00
7058;BME280;3570;43.080;25.628;2022-10-04T02:31:23;-19805.63;;;12.09;100.00
7058;BME280;3570;43.080;25.628;2022-10-04T02:34:27;-19799.94;;;11.90;100.00
7058;BME280;3570;43.080;25.628;2022-10-04T02:37:11;-19795.13;;;11.73;100.00
7058;BME280;3570;43.080;25.628;2022-10-04T02:40:14;-19792.34;;;11.64;100.00
7058;BME280;3570;43.080;25.628;2022-10-04T02:43:13;-19791.19;;;11.60;100.00
7058;BME280;3570;43.080;25.628;2022-10-04T02:46:07;-19794.09;;;11.70;100.00
7058;BME280;3570;43.080;25.628;2022-10-04T02:48:57;-19795.69;;;11.75;100.00
7058;BME280;3570;43.080;25.628;2022-10-04T02:51:46;-19798.03;;;11.83;100.00
7058;BME280;3570;43.080;25.628;2022-10-04T02:54:39;-19801.97;;;11.97;100.00
7058;BME280;3570;43.080;25.628;2022-10-04T02:57:26;-19805.19;;;12.08;100.00
7058;BME280;3570;43.080;25.628;2022-10-04T03:03:35;-19788.09;;;11.49;100.00
7058;BME280;3570;43.080;25.628;2022-10-04T03:06:21;-19769.56;;;10.85;100.00
7058;BME280;3570;43.080;25.628;2022-10-04T03:09:07;-19764.75;;;10.69;100.00
7058;BME280;3570;43.080;25.628;2022-10-04T03:11:52;-19770.31;;;10.88;100.00
7058;BME280;3570;43.080;25.628;2022-10-04T03:14:37;-19770.44;;;10.88;100.00
7058;BME280;3570;43.080;25.628;2022-10-04T03:17:21;-19767.97;;;10.80;100.00
7058;BME280;3570;43.080;25.628;2022-10-04T03:20:07;-19768.41;;;10.81;100.00
7058;BME280;3570;43.080;25.628;2022-10-04T03:22:54;-19767.81;;;10.79;100.00
7058;BME280;3570;43.080;25.628;2022-10-04T03:25:53;-19761.25;;;10.57;100.00
7058;BME280;3570;43.080;25.628;2022-10-04T03:28:39;-19760.97;;;10.56;100.00
7058;BME280;3570;43.080;25.628;2022-10-04T03:31:25;-19764.75;;;10.69;100.00
7058;BME280;3570;43.080;25.628;2022-10-04T03:34:22;-19769.84;;;10.86;100.00
7058;BME280;3570;43.080;25.628;2022-10-04T03:37:13;-19773.50;;;10.99;100.00
7058;BME280;3570;43.080;25.628;2022-10-04T03:39:58;-19774.09;;;11.01;100.00
7058;BME280;3570;43.080;25.628;2022-10-04T03:42:44;-19776.13;;;11.08;100.00
7058;BME280;3570;43.080;25.628;2022-10-04T03:45:32;-19766.22;;;10.74;100.00
7058;BME280;3570;43.080;25.628;2022-10-04T03:48:26;-19765.47;;;10.71;100.00
7058;BME280;3570;43.080;25.628;2022-10-04T03:51:20;-19774.09;;;11.01;100.00
7058;BME280;3570;43.080;25.628;2022-10-04T03:54:07;-19780.97;;;11.24;100.00
7058;BME280;3570;43.080;25.628;2022-10-04T03:56:54;-19763.72;;;10.65;100.00
7058;BME280;3570;43.080;25.628;2022-10-04T03:59:39;-19765.91;;;10.73;100.00
7058;BME280;3570;43.080;25.628;2022-10-04T04:08:29;-19769.13;;;10.84;100.00
7058;BME280;3570;43.080;25.628;2022-10-04T04:11:25;-19766.22;;;10.74;100.00
7058;BME280;3570;43.080;25.628;2022-10-04T04:14:20;-19766.34;;;10.74;100.00
7058;BME280;3570;43.080;25.628;2022-10-04T04:17:17;-19782.13;;;11.28;100.00
7058;BME280;3570;43.080;25.628;2022-10-04T04:20:19;-19795.69;;;11.75;100.00
7058;BME280;3570;43.080;25.628;2022-10-04T04:25:55;-19816.28;;;12.46;100.00
7058;BME280;3570;43.080;25.628;2022-10-04T04:28:46;-19817.16;;;12.49;100.00
7058;BME280;3570;43.080;25.628;2022-10-04T04:31:40;-19813.06;;;12.35;100.00
7058;BME280;3570;43.080;25.628;2022-10-04T04:34:29;-19813.66;;;12.37;100.00
7058;BME280;3570;43.080;25.628;2022-10-04T04:37:14;-19835.69;;;13.13;100.00
7058;BME280;3570;43.080;25.628;2022-10-04T04:40:17;-19830.13;;;12.94;100.00
7058;BME280;3570;43.080;25.628;2022-10-04T04:43:02;-19827.94;;;12.86;100.00
7058;BME280;3570;43.080;25.628;2022-10-04T04:45:48;-19827.78;;;12.86;100.00
7058;BME280;3570;43.080;25.628;2022-10-04T04:48:32;-19833.34;;;13.05;100.00
7058;BME280;3570;43.080;25.628;2022-10-04T04:51:21;-19825.31;;;12.77;100.00
7058;BME280;3570;43.080;25.628;2022-10-04T04:54:07;-19813.22;;;12.36;100.00
7058;BME280;3570;43.080;25.628;2022-10-04T04:56:53;-19796.88;;;11.79;100.00
7058;BME280;3570;43.080;25.628;2022-10-04T04:59:43;-19792.50;;;11.64;100.00
7058;BME280;3570;43.080;25.628;2022-10-04T05:02:34;-19790.16;;;11.56;100.00
7058;BME280;3570;43.080;25.628;2022-10-04T05:13:51;-19814.09;;;12.39;100.00
7058;BME280;3570;43.080;25.628;2022-10-04T05:16:52;-19805.78;;;12.10;100.00
7058;BME280;3570;43.080;25.628;2022-10-04T05:19:38;-19800.66;;;11.92;100.00
7058;BME280;3570;43.080;25.628;2022-10-04T05:22:24;-19802.41;;;11.98;100.00
7058;BME280;3570;43.080;25.628;2022-10-04T05:25:15;-19797.47;;;11.81;100.00
7058;BME280;3570;43.080;25.628;2022-10-04T05:28:00;-19803.44;;;12.02;100.00
7058;BME280;3570;43.080;25.628;2022-10-04T05:33:53;-19801.84;;;11.96;100.00
7058;BME280;3570;43.080;25.628;2022-10-04T05:36:56;-19805.34;;;12.08;100.00
7058;BME280;3570;43.080;25.628;2022-10-04T05:39:53;-19808.84;;;12.20;100.00
7058;BME280;3570;43.080;25.628;2022-10-04T05:42:44;-19817.88;;;12.52;100.00
7058;BME280;3570;43.080;25.628;2022-10-04T05:45:30;-19819.63;;;12.58;100.00
7058;BME280;3570;43.080;25.628;2022-10-04T05:48:14;-19818.19;;;12.53;100.00
7058;BME280;3570;43.080;25.628;2022-10-04T05:50:58;-19807.09;;;12.14;100.00
7058;BME280;3570;43.080;25.628;2022-10-04T05:53:43;-19812.78;;;12.34;100.00
7058;BME280;3570;43.080;25.628;2022-10-04T06:05:59;-19829.25;;;12.91;100.00
7058;BME280;3570;43.080;25.628;2022-10-04T06:15:12;-19831.28;;;12.98;100.00
7058;BME280;3570;43.080;25.628;2022-10-04T06:21:30;-19834.81;;;13.10;100.00
7058;BME280;3570;43.080;25.628;2022-10-04T06:24:32;-19834.50;;;13.09;100.00
7058;BME280;3570;43.080;25.628;2022-10-04T06:27:29;-19831.00;;;12.97;100.00
7058;BME280;3570;43.080;25.628;2022-10-04T06:30:18;-19835.38;;;13.12;100.00
7058;BME280;3570;43.080;25.628;2022-10-04T06:39:36;-19833.19;;;13.04;100.00
7058;BME280;3570;43.080;25.628;2022-10-04T07:00:58;-19870.66;;;14.34;100.00
7058;BME280;3570;43.080;25.628;2022-10-04T07:03:54;-19874.16;;;14.46;100.00
7058;BME280;3570;43.080;25.628;2022-10-04T07:06:48;-19865.25;;;14.15;100.00
7058;BME280;3570;43.080;25.628;2022-10-04T07:09:36;-19868.03;;;14.25;100.00
7058;BME280;3570;43.080;25.628;2022-10-04T07:12:21;-19867.00;;;14.21;100.00
7058;BME280;3570;43.080;25.628;2022-10-04T07:15:16;-19863.50;;;14.09;100.00
7058;BME280;3570;43.080;25.628;2022-10-04T07:18:04;-19861.03;;;14.00;100.00
7058;BME280;3570;43.080;25.628;2022-10-04T07:20:59;-19859.56;;;13.95;100.00
7058;BME280;3570;43.080;25.628;2022-10-04T07:23:56;-19856.94;;;13.86;100.00
7058;BME280;3570;43.080;25.628;2022-10-04T07:26:47;-19868.47;;;14.26;100.00
7058;BME280;3570;43.080;25.628;2022-10-04T07:29:36;-19868.47;;;14.26;100.00
7058;BME280;3570;43.080;25.628;2022-10-04T07:32:29;-19880.25;;;14.67;100.00
7058;BME280;3570;43.080;25.628;2022-10-04T07:35:27;-19876.78;;;14.55;100.00
7058;BME280;3570;43.080;25.628;2022-10-04T07:38:28;-19877.19;;;14.56;100.00
7058;BME280;3570;43.080;25.628;2022-10-04T07:41:49;-19887.53;;;14.92;100.00
7058;BME280;3570;43.080;25.628;2022-10-04T07:44:36;-19884.06;;;14.80;100.00
7058;BME280;3570;43.080;25.628;2022-10-04T07:47:24;-19884.19;;;14.80;100.00
7058;BME280;3570;43.080;25.628;2022-10-04T07:50:25;-19894.53;;;15.16;100.00
7058;BME280;3570;43.080;25.628;2022-10-04T07:53:17;-19884.63;;;14.82;100.00
7058;BME280;3570;43.080;25.628;2022-10-04T07:56:14;-19878.94;;;14.62;100.00
7058;BME280;3570;43.080;25.628;2022-10-04T08:17:56;-19898.88;;;15.31;95.93
7058;BME280;3570;43.080;25.628;2022-10-04T08:20:52;-19893.81;;;15.14;96.75
7058;BME280;3570;43.080;25.628;2022-10-04T08:30:12;-19917.81;;;15.96;93.47
7058;BME280;3570;43.080;25.628;2022-10-04T08:33:21;-19912.13;;;15.77;91.16
7058;BME280;3570;43.080;25.628;2022-10-04T08:36:24;-19916.38;;;15.91;88.06
7058;BME280;3570;43.080;25.628;2022-10-04T08:54:59;-19982.94;;;18.22;78.73
7058;BME280;3570;43.080;25.628;2022-10-04T09:34:39;-19989.31;;;18.44;68.50
7058;BME280;3570;43.080;25.628;2022-10-04T09:37:49;-19975.66;;;17.97;72.41
7058;BME280;3570;43.080;25.628;2022-10-04T10:05:27;-20101.78;;;22.34;48.58
7058;BME280;3570;43.080;25.628;2022-10-04T10:11:12;-20168.13;;;24.65;42.87
7058;BME280;3570;43.080;25.628;2022-10-04T10:20:58;-20132.88;;;23.42;45.02
7058;BME280;3570;43.080;25.628;2022-10-04T10:29:10;-20065.31;;;21.07;48.42
7058;BME280;3570;43.080;25.628;2022-10-04T10:35:42;-20088.47;;;21.88;46.66
7058;BME280;3570;43.080;25.628;2022-10-04T10:44:37;-20075.31;;;21.42;50.20
7058;BME280;3570;43.080;25.628;2022-10-04T10:47:42;-20064.72;;;21.05;46.04
7058;BME280;3570;43.080;25.628;2022-10-04T10:50:59;-20049.66;;;20.53;45.26
7058;BME280;3570;43.080;25.628;2022-10-04T11:09:38;-20116.69;;;22.86;46.34
7058;BME280;3570;43.080;25.628;2022-10-04T11:19:03;-20049.81;;;20.53;47.82
7058;BME280;3570;43.080;25.628;2022-10-04T11:47:44;-20040.66;;;20.22;49.48
7058;BME280;3570;43.080;25.628;2022-10-04T11:59:31;-20036.03;;;20.06;49.56
7058;BME280;3570;43.080;25.628;2022-10-04T12:34:56;-19966.38;;;17.64;57.85
7058;BME280;3570;43.080;25.628;2022-10-04T12:44:33;-19950.09;;;17.08;69.52
7058;BME280;3570;43.080;25.628;2022-10-04T13:03:23;-20127.53;;;23.23;47.45
7058;BME280;3570;43.080;25.628;2022-10-04T13:11:45;-20067.63;;;21.15;51.17
7058;BME280;3570;43.080;25.628;2022-10-04T13:17:59;-20031.25;;;19.89;55.29
7058;BME280;3570;43.080;25.628;2022-10-04T13:29:47;-20074.28;;;21.38;53.03
7058;BME280;3570;43.080;25.628;2022-10-04T13:36:21;-20233.75;;;26.93;40.01
7058;BME280;3570;43.080;25.628;2022-10-04T13:45:05;-20169.72;;;24.70;42.17
7058;BME280;3570;43.080;25.628;2022-10-04T13:48:02;-20089.06;;;21.90;47.95
7058;BME280;3570;43.080;25.628;2022-10-04T13:54:00;-20046.91;;;20.43;54.93
7058;BME280;3570;43.080;25.628;2022-10-04T14:00:11;-19994.41;;;18.61;63.27
7058;BME280;3570;43.080;25.628;2022-10-04T14:06:26;-19970.44;;;17.78;63.29
7058;BME280;3570;43.080;25.628;2022-10-04T14:48:21;-19906.31;;;15.57;81.69
7058;BME280;3570;43.080;25.628;2022-10-04T14:54:05;-19963.19;;;17.53;70.78
7058;BME280;3570;43.080;25.628;2022-10-04T14:57:06;-19995.13;;;18.64;66.01
7058;BME280;3570;43.080;25.628;2022-10-04T15:02:27;-20085.72;;;21.78;55.99
7058;BME280;3570;43.080;25.628;2022-10-04T15:07:50;-20134.75;;;23.49;46.60
7058;BME280;3570;43.080;25.628;2022-10-04T15:10:30;-20134.47;;;23.48;46.20
7058;BME280;3570;43.080;25.628;2022-10-04T15:13:07;-20128.69;;;23.27;46.77
7058;BME280;3570;43.080;25.628;2022-10-04T15:16:08;-20086.44;;;21.81;53.70
7058;BME280;3570;43.080;25.628;2022-10-04T15:23:50;-20019.78;;;19.49;66.45
7058;BME280;3570;43.080;25.628;2022-10-04T15:36:49;-20017.47;;;19.41;65.82
7058;BME280;3570;43.080;25.628;2022-10-04T15:39:36;-20011.09;;;19.19;68.19
7058;BME280;3570;43.080;25.628;2022-10-04T15:42:29;-20003.25;;;18.92;71.03
7058;BME280;3570;43.080;25.628;2022-10-04T16:04:43;-19891.91;;;15.07;93.38
7058;BME280;3570;43.080;25.628;2022-10-04T16:12:30;-19880.84;;;14.69;93.86
7058;BME280;3570;43.080;25.628;2022-10-04T16:15:37;-19867.72;;;14.24;96.55
7058;BME280;3570;43.080;25.628;2022-10-04T16:23:35;-19867.44;;;14.23;100.00
7058;BME280;3570;43.080;25.628;2022-10-04T16:26:09;-19863.78;;;14.10;100.00
7058;BME280;3570;43.080;25.628;2022-10-04T16:31:45;-19868.91;;;14.28;100.00
7058;BME280;3570;43.080;25.628;2022-10-04T16:34:44;-19879.69;;;14.65;100.00
7058;BME280;3570;43.080;25.628;2022-10-04T16:43:10;-19901.66;;;15.41;99.50
7058;BME280;3570;43.080;25.628;2022-10-04T16:49:01;-19921.31;;;16.09;95.23
7058;BME280;3570;43.080;25.628;2022-10-04T16:51:52;-19915.19;;;15.87;95.54
7058;BME280;3570;43.080;25.628;2022-10-04T16:54:45;-19906.47;;;15.57;97.25
7058;BME280;3570;43.080;25.628;2022-10-04T16:57:17;-19897.44;;;15.26;97.96
7058;BME280;3570;43.080;25.628;2022-10-04T17:09:57;-19871.81;;;14.38;100.00
7058;BME280;3570;43.080;25.628;2022-10-04T17:12:53;-19895.69;;;15.20;100.00
7058;BME280;3570;43.080;25.628;2022-10-04T17:21:09;-19875.75;;;14.51;100.00
7058;BME280;3570;43.080;25.628;2022-10-04T17:40:46;-19907.19;;;15.60;100.00
7058;BME280;3570;43.080;25.628;2022-10-04T17:43:26;-19917.81;;;15.96;100.00
7058;BME280;3570;43.080;25.628;2022-10-04T17:48:59;-19925.66;;;16.24;99.29
7058;BME280;3570;43.080;25.628;2022-10-04T17:51:59;-19926.09;;;16.25;96.92
7058;BME280;3570;43.080;25.628;2022-10-04T17:55:20;-19938.47;;;16.68;95.75
7058;BME280;3570;43.080;25.628;2022-10-04T17:57:57;-19937.75;;;16.65;94.85
7058;BME280;3570;43.080;25.628;2022-10-04T18:00:26;-19929.16;;;16.36;95.89
7058;BME280;3570;43.080;25.628;2022-10-04T18:03:18;-19930.03;;;16.39;96.06
7058;BME280;3570;43.080;25.628;2022-10-04T18:05:49;-19902.53;;;15.44;99.63
7058;BME280;3570;43.080;25.628;2022-10-04T18:13:53;-19900.34;;;15.36;100.00
7058;BME280;3570;43.080;25.628;2022-10-04T18:16:41;-19910.09;;;15.70;100.00
7058;BME280;3570;43.080;25.628;2022-10-04T18:22:15;-19919.41;;;16.02;99.66
7058;BME280;3570;43.080;25.628;2022-10-04T18:24:43;-19924.06;;;16.18;98.64
7058;BME280;3570;43.080;25.628;2022-10-04T18:27:22;-19925.53;;;16.23;98.35
7058;BME280;3570;43.080;25.628;2022-10-04T18:30:11;-19921.59;;;16.10;97.47
7058;BME280;3570;43.080;25.628;2022-10-04T18:32:42;-19932.22;;;16.46;96.33
7058;BME280;3570;43.080;25.628;2022-10-04T18:37:47;-19912.00;;;15.76;96.91
7058;BME280;3570;43.080;25.628;2022-10-04T18:40:15;-19928.28;;;16.33;96.50
7058;BME280;3570;43.080;25.628;2022-10-04T18:42:48;-19916.66;;;15.92;96.63
7058;BME280;3570;43.080;25.628;2022-10-04T18:47:45;-19916.94;;;15.93;97.81
7058;BME280;3570;43.080;25.628;2022-10-04T19:07:21;-19879.69;;;14.65;100.00
7058;BME280;3570;43.080;25.628;2022-10-04T19:10:08;-19859.88;;;13.96;100.00
7058;BME280;3570;43.080;25.628;2022-10-04T19:15:19;-19883.16;;;14.77;100.00
7058;BME280;3570;43.080;25.628;2022-10-04T19:18:28;-19897.00;;;15.25;100.00
7058;BME280;3570;43.080;25.628;2022-10-04T19:21:12;-19904.28;;;15.50;100.00
7058;BME280;3570;43.080;25.628;2022-10-04T19:26:43;-19911.13;;;15.73;100.00
7058;BME280;3570;43.080;25.628;2022-10-04T19:32:01;-19905.88;;;15.55;100.00
7058;BME280;3570;43.080;25.628;2022-10-04T19:37:10;-19903.25;;;15.46;100.00
7058;BME280;3570;43.080;25.628;2022-10-04T19:42:47;-19890.44;;;15.02;100.00
7058;BME280;3570;43.080;25.628;2022-10-04T19:48:27;-19856.22;;;13.84;100.00
7058;BME280;3570;43.080;25.628;2022-10-04T19:51:21;-19850.97;;;13.66;100.00
7058;BME280;3570;43.080;25.628;2022-10-04T19:53:51;-19836.25;;;13.15;100.00
7058;BME280;3570;43.080;25.628;2022-10-04T19:56:26;-19818.63;;;12.54;100.00
7058;BME280;3570;43.080;25.628;2022-10-04T19:59:10;-19804.59;;;12.06;100.00
7058;BME280;3570;43.080;25.628;2022-10-04T20:01:38;-19786.34;;;11.43;100.00
7058;BME280;3570;43.080;25.628;2022-10-04T20:04:12;-19786.06;;;11.42;100.00
7058;BME280;3570;43.080;25.628;2022-10-04T20:06:57;-19784.75;;;11.37;100.00
7058;BME280;3570;43.080;25.628;2022-10-04T20:12:02;-19791.31;;;11.60;100.00
7058;BME280;3570;43.080;25.628;2022-10-04T20:35:02;-19872.41;;;14.40;100.00
7058;BME280;3570;43.080;25.628;2022-10-04T20:45:44;-19886.09;;;14.87;100.00
7058;BME280;3570;43.080;25.628;2022-10-04T20:50:47;-19881.44;;;14.71;100.00
7058;BME280;3570;43.080;25.628;2022-10-04T20:53:19;-19868.16;;;14.25;100.00
7058;BME280;3570;43.080;25.628;2022-10-04T20:55:45;-19874.72;;;14.48;100.00
7058;BME280;3570;43.080;25.628;2022-10-04T20:58:32;-19881.28;;;14.70;100.00
7058;BME280;3570;43.080;25.628;2022-10-04T21:01:05;-19881.84;;;14.72;100.00
7058;BME280;3570;43.080;25.628;2022-10-04T21:03:52;-19886.38;;;14.88;100.00
7058;BME280;3570;43.080;25.628;2022-10-04T21:06:17;-19879.38;;;14.64;100.00
7058;BME280;3570;43.080;25.628;2022-10-04T21:08:43;-19882.16;;;14.73;100.00
7058;BME280;3570;43.080;25.628;2022-10-04T21:11:42;-19884.78;;;14.82;100.00
7058;BME280;3570;43.080;25.628;2022-10-04T21:13:55;-19879.38;;;14.64;100.00
7058;BME280;3570;43.080;25.628;2022-10-04T21:16:37;-19880.25;;;14.67;100.00
7058;BME280;3570;43.080;25.628;2022-10-04T21:29:49;-19863.22;;;14.08;100.00
7058;BME280;3570;43.080;25.628;2022-10-04T21:32:18;-19863.50;;;14.09;100.00
7058;BME280;3570;43.080;25.628;2022-10-04T21:34:43;-19866.72;;;14.20;100.00
7058;BME280;3570;43.080;25.628;2022-10-04T21:37:09;-19858.69;;;13.92;100.00
7058;BME280;3570;43.080;25.628;2022-10-04T21:39:34;-19854.91;;;13.79;100.00
7058;BME280;3570;43.080;25.628;2022-10-04T21:42:00;-19860.44;;;13.98;100.00
7058;BME280;3570;43.080;25.628;2022-10-04T21:44:25;-19869.34;;;14.29;100.00
7058;BME280;3570;43.080;25.628;2022-10-04T21:46:51;-19870.66;;;14.34;100.00
7058;BME280;3570;43.080;25.628;2022-10-04T21:49:16;-19875.16;;;14.49;100.00
7058;BME280;3570;43.080;25.628;2022-10-04T21:51:41;-19872.53;;;14.40;100.00
7058;BME280;3570;43.080;25.628;2022-10-04T21:54:07;-19879.09;;;14.63;100.00
7058;BME280;3570;43.080;25.628;2022-10-04T21:56:32;-19874.72;;;14.48;100.00
7058;BME280;3570;43.080;25.628;2022-10-04T21:58:58;-19875.47;;;14.50;100.00
7058;BME280;3570;43.080;25.628;2022-10-04T22:01:23;-19875.03;;;14.49;100.00
7058;BME280;3570;43.080;25.628;2022-10-04T22:03:49;-19875.16;;;14.49;100.00
7058;BME280;3570;43.080;25.628;2022-10-04T22:06:16;-19874.44;;;14.47;100.00
7058;BME280;3570;43.080;25.628;2022-10-04T22:08:41;-19856.94;;;13.86;100.00
7058;BME280;3570;43.080;25.628;2022-10-04T22:11:07;-19852.72;;;13.72;100.00
7058;BME280;3570;43.080;25.628;2022-10-04T22:13:33;-19839.75;;;13.27;100.00
7058;BME280;3570;43.080;25.628;2022-10-04T22:15:58;-19824.75;;;12.75;100.00
7058;BME280;3570;43.080;25.628;2022-10-04T22:18:24;-19826.47;;;12.81;100.00
7058;BME280;3570;43.080;25.628;2022-10-04T22:20:49;-19829.84;;;12.93;100.00
7058;BME280;3570;43.080;25.628;2022-10-04T22:23:19;-19823.41;;;12.71;100.00
7058;BME280;3570;43.080;25.628;2022-10-04T22:25:45;-19838.59;;;13.23;100.00
7058;BME280;3570;43.080;25.628;2022-10-04T22:28:25;-19848.50;;;13.57;100.00
7058;BME280;3570;43.080;25.628;2022-10-04T22:30:52;-19854.03;;;13.76;100.00
7058;BME280;3570;43.080;25.628;2022-10-04T22:35:51;-19864.09;;;14.11;100.00
7058;BME280;3570;43.080;25.628;2022-10-04T22:38:17;-19863.66;;;14.09;100.00
7058;BME280;3570;43.080;25.628;2022-10-04T22:40:42;-19866.56;;;14.19;100.00
7058;BME280;3570;43.080;25.628;2022-10-04T22:43:12;-19869.19;;;14.29;100.00
7058;BME280;3570;43.080;25.628;2022-10-04T22:45:38;-19871.22;;;14.36;100.00
7058;BME280;3570;43.080;25.628;2022-10-04T22:48:10;-19871.81;;;14.38;100.00
7058;BME280;3570;43.080;25.628;2022-10-04T22:50:38;-19873.28;;;14.43;100.00
7058;BME280;3570;43.080;25.628;2022-10-04T22:53:16;-19868.03;;;14.25;100.00
7058;BME280;3570;43.080;25.628;2022-10-04T22:55:44;-19867.72;;;14.24;100.00
7058;BME280;3570;43.080;25.628;2022-10-04T22:58:14;-19866.72;;;14.20;100.00
7058;BME280;3570;43.080;25.628;2022-10-04T23:00:41;-19866.84;;;14.21;100.00
7058;BME280;3570;43.080;25.628;2022-10-04T23:03:29;-19859.44;;;13.95;100.00
7058;BME280;3570;43.080;25.628;2022-10-04T23:05:56;-19844.72;;;13.44;100.00
7058;BME280;3570;43.080;25.628;2022-10-04T23:08:22;-19805.47;;;12.09;100.00
7058;BME280;3570;43.080;25.628;2022-10-04T23:11:06;-19798.91;;;11.86;100.00
7058;BME280;3570;43.080;25.628;2022-10-04T23:13:50;-19807.09;;;12.14;100.00
7058;BME280;3570;43.080;25.628;2022-10-04T23:16:35;-19817.00;;;12.49;100.00
7058;BME280;3570;43.080;25.628;2022-10-04T23:19:20;-19833.34;;;13.05;100.00
7058;BME280;3570;43.080;25.628;2022-10-04T23:22:08;-19848.66;;;13.58;100.00
7058;BME280;3570;43.080;25.628;2022-10-04T23:24:55;-19851.69;;;13.68;100.00
7058;BME280;3570;43.080;25.628;2022-10-04T23:27:21;-19854.19;;;13.77;100.00
7058;BME280;3570;43.080;25.628;2022-10-04T23:29:56;-19857.09;;;13.87;100.00
7058;BME280;3570;43.080;25.628;2022-10-04T23:32:23;-19860.44;;;13.98;100.00
7058;BME280;3570;43.080;25.628;2022-10-04T23:34:49;-19858.13;;;13.90;100.00
7058;BME280;3570;43.080;25.628;2022-10-04T23:37:18;-19865.97;;;14.17;100.00
7058;BME280;3570;43.080;25.628;2022-10-04T23:39:46;-19861.03;;;14.00;100.00
7058;BME280;3570;43.080;25.628;2022-10-04T23:42:24;-19846.75;;;13.51;100.00
7058;BME280;3570;43.080;25.628;2022-10-04T23:45:01;-19841.50;;;13.33;100.00
7058;BME280;3570;43.080;25.628;2022-10-04T23:47:31;-19828.81;;;12.89;100.00
7058;BME280;3570;43.080;25.628;2022-10-04T23:49:57;-19836.84;;;13.17;100.00
7058;BME280;3570;43.080;25.628;2022-10-04T23:52:32;-19836.69;;;13.16;100.00
7058;BME280;3570;43.080;25.628;2022-10-04T23:54:59;-19846.03;;;13.49;100.00
7058;BME280;3570;43.080;25.628;2022-10-04T23:57:26;-19849.97;;;13.62;100.00
7058;BME280;3570;43.080;25.628;2022-10-04T23:59:52;-19850.53;;;13.64;100.00
